sensor_id;sensor_type;location;lat;lon;timestamp;pressure;altitude;pressure_sealevel;temperature;humidity
35551;BME280;21655;46.056;13.616;2022-09-21T00:01:27;100750.16;;;15.49;61.67
35551;BME280;21655;46.056;13.616;2022-09-21T00:03:56;100760.69;;;15.47;61.16
35551;BME280;21655;46.056;13.616;2022-09-21T00:06:23;100759.78;;;15.40;62.51
35551;BME280;21655;46.056;13.616;2022-09-21T00:08:50;100759.78;;;15.40;61.93
35551;BME280;21655;46.056;13.616;2022-09-21T00:11:19;100765.50;;;15.32;62.81
35551;BME280;21655;46.056;13.616;2022-09-21T00:13:45;100758.72;;;15.27;63.23
35551;BME280;21655;46.056;13.616;2022-09-21T00:16:13;100762.22;;;15.29;61.79
35551;BME280;21655;46.056;13.616;2022-09-21T00:18:39;100762.88;;;15.31;62.03
35551;BME280;21655;46.056;13.616;2022-09-21T00:21:10;100771.63;;;15.28;62.87
35551;BME280;21655;46.056;13.616;2022-09-21T00:23:36;100770.00;;;15.12;64.82
35551;BME280;21655;46.056;13.616;2022-09-21T00:26:13;100765.50;;;14.97;65.09
35551;BME280;21655;46.056;13.616;2022-09-21T00:28:40;100776.81;;;14.89;66.50
35551;BME280;21655;46.056;13.616;2022-09-21T00:31:08;100766.97;;;14.93;63.58
35551;BME280;21655;46.056;13.616;2022-09-21T00:33:36;100777.09;;;14.94;63.96
35551;BME280;21655;46.056;13.616;2022-09-21T00:36:07;100780.69;;;14.88;64.70
35551;BME280;21655;46.056;13.616;2022-09-21T00:38:33;100765.97;;;14.80;65.55
35551;BME280;21655;46.056;13.616;2022-09-21T00:40:59;100777.88;;;14.67;70.05
35551;BME280;21655;46.056;13.616;2022-09-21T00:43:24;100776.09;;;14.31;74.62
35551;BME280;21655;46.056;13.616;2022-09-21T00:45:55;100779.84;;;14.23;76.98
35551;BME280;21655;46.056;13.616;2022-09-21T00:48:23;100780.13;;;14.14;79.49
35551;BME280;21655;46.056;13.616;2022-09-21T00:50:51;100779.75;;;14.02;81.87
35551;BME280;21655;46.056;13.616;2022-09-21T00:53:19;100782.34;;;13.89;82.35
35551;BME280;21655;46.056;13.616;2022-09-21T00:55:48;100786.06;;;13.82;83.74
35551;BME280;21655;46.056;13.616;2022-09-21T00:58:19;100782.97;;;13.62;85.56
35551;BME280;21655;46.056;13.616;2022-09-21T01:00:48;100793.16;;;13.55;84.61
35551;BME280;21655;46.056;13.616;2022-09-21T01:03:13;100791.59;;;13.53;85.22
35551;BME280;21655;46.056;13.616;2022-09-21T01:05:39;100789.75;;;13.45;88.01
35551;BME280;21655;46.056;13.616;2022-09-21T01:08:06;100805.94;;;13.27;88.45
35551;BME280;21655;46.056;13.616;2022-09-21T01:11:03;100800.44;;;13.19;90.96
35551;BME280;21655;46.056;13.616;2022-09-21T01:16:19;100800.19;;;13.07;91.73
35551;BME280;21655;46.056;13.616;2022-09-21T01:18:57;100810.06;;;13.09;92.19
35551;BME280;21655;46.056;13.616;2022-09-21T01:21:31;100814.19;;;12.91;94.51
35551;BME280;21655;46.056;13.616;2022-09-21T01:24:48;100818.25;;;12.80;94.22
35551;BME280;21655;46.056;13.616;2022-09-21T01:29:51;100831.34;;;12.72;97.72
35551;BME280;21655;46.056;13.616;2022-09-21T01:32:28;100837.69;;;12.58;99.90
35551;BME280;21655;46.056;13.616;2022-09-21T01:35:02;100825.75;;;12.49;100.00
35551;BME280;21655;46.056;13.616;2022-09-21T01:37:36;100828.53;;;12.49;100.00
35551;BME280;21655;46.056;13.616;2022-09-21T01:40:07;100834.47;;;12.38;100.00
35551;BME280;21655;46.056;13.616;2022-09-21T01:42:38;100826.03;;;12.24;100.00
35551;BME280;21655;46.056;13.616;2022-09-21T01:45:06;100840.13;;;12.14;100.00
35551;BME280;21655;46.056;13.616;2022-09-21T01:47:35;100836.53;;;12.06;100.00
35551;BME280;21655;46.056;13.616;2022-09-21T01:50:06;100830.81;;;11.99;100.00
35551;BME280;21655;46.056;13.616;2022-09-21T01:52:41;100843.84;;;11.91;100.00
35551;BME280;21655;46.056;13.616;2022-09-21T01:55:13;100851.34;;;11.82;100.00
35551;BME280;21655;46.056;13.616;2022-09-21T01:58:04;100844.03;;;11.81;100.00
35551;BME280;21655;46.056;13.616;2022-09-21T02:00:34;100845.41;;;11.77;100.00
35551;BME280;21655;46.056;13.616;2022-09-21T02:03:15;100848.91;;;11.47;100.00
35551;BME280;21655;46.056;13.616;2022-09-21T02:05:44;100841.97;;;11.51;100.00
35551;BME280;21655;46.056;13.616;2022-09-21T02:08:10;100845.09;;;11.40;100.00
35551;BME280;21655;46.056;13.616;2022-09-21T02:10:49;100851.34;;;11.34;100.00
35551;BME280;21655;46.056;13.616;2022-09-21T02:13:16;100855.84;;;11.35;100.00
35551;BME280;21655;46.056;13.616;2022-09-21T02:16:24;100853.94;;;11.36;100.00
35551;BME280;21655;46.056;13.616;2022-09-21T02:22:03;100862.28;;;11.28;100.00
35551;BME280;21655;46.056;13.616;2022-09-21T02:24:42;100859.66;;;11.18;100.00
35551;BME280;21655;46.056;13.616;2022-09-21T02:27:35;100868.16;;;11.09;100.00
35551;BME280;21655;46.056;13.616;2022-09-21T02:30:16;100856.88;;;11.18;100.00
35551;BME280;21655;46.056;13.616;2022-09-21T02:33:11;100859.47;;;11.12;100.00
35551;BME280;21655;46.056;13.616;2022-09-21T02:39:04;100863.94;;;10.81;100.00
35551;BME280;21655;46.056;13.616;2022-09-21T02:44:19;100859.91;;;10.68;100.00
35551;BME280;21655;46.056;13.616;2022-09-21T02:46:57;100849.66;;;10.68;100.00
35551;BME280;21655;46.056;13.616;2022-09-21T02:49:34;100851.06;;;10.64;100.00
35551;BME280;21655;46.056;13.616;2022-09-21T02:52:09;100861.09;;;10.65;100.00
35551;BME280;21655;46.056;13.616;2022-09-21T02:54:36;100868.72;;;10.63;100.00
35551;BME280;21655;46.056;13.616;2022-09-21T02:57:04;100868.88;;;10.54;100.00
35551;BME280;21655;46.056;13.616;2022-09-21T02:59:30;100871.44;;;10.47;100.00
35551;BME280;21655;46.056;13.616;2022-09-21T03:01:57;100865.91;;;10.47;100.00
35551;BME280;21655;46.056;13.616;2022-09-21T03:04:23;100864.72;;;10.50;100.00
35551;BME280;21655;46.056;13.616;2022-09-21T03:06:49;100873.53;;;10.45;100.00
35551;BME280;21655;46.056;13.616;2022-09-21T03:09:14;100872.78;;;10.35;100.00
35551;BME280;21655;46.056;13.616;2022-09-21T03:11:40;100874.69;;;10.35;100.00
35551;BME280;21655;46.056;13.616;2022-09-21T03:14:08;100878.09;;;10.21;100.00
35551;BME280;21655;46.056;13.616;2022-09-21T03:16:34;100884.50;;;10.21;100.00
35551;BME280;21655;46.056;13.616;2022-09-21T03:19:00;100891.25;;;10.19;100.00
35551;BME280;21655;46.056;13.616;2022-09-21T03:21:26;100891.88;;;10.13;100.00
35551;BME280;21655;46.056;13.616;2022-09-21T03:23:51;100897.25;;;10.14;100.00
35551;BME280;21655;46.056;13.616;2022-09-21T03:26:17;100897.59;;;10.11;100.00
35551;BME280;21655;46.056;13.616;2022-09-21T03:28:49;100898.16;;;10.15;100.00
35551;BME280;21655;46.056;13.616;2022-09-21T03:31:15;100912.50;;;10.10;100.00
35551;BME280;21655;46.056;13.616;2022-09-21T03:33:41;100905.44;;;9.98;100.00
35551;BME280;21655;46.056;13.616;2022-09-21T03:36:07;100922.41;;;9.95;100.00
35551;BME280;21655;46.056;13.616;2022-09-21T03:38:33;100914.94;;;9.96;100.00
35551;BME280;21655;46.056;13.616;2022-09-21T03:40:59;100913.53;;;9.92;100.00
35551;BME280;21655;46.056;13.616;2022-09-21T03:43:25;100917.81;;;9.86;100.00
35551;BME280;21655;46.056;13.616;2022-09-21T03:45:51;100924.47;;;9.93;100.00
35551;BME280;21655;46.056;13.616;2022-09-21T03:48:17;100924.13;;;9.96;100.00
35551;BME280;21655;46.056;13.616;2022-09-21T03:50:42;100925.91;;;9.80;100.00
35551;BME280;21655;46.056;13.616;2022-09-21T03:53:08;100928.69;;;9.80;100.00
35551;BME280;21655;46.056;13.616;2022-09-21T03:55:34;100938.22;;;9.60;100.00
35551;BME280;21655;46.056;13.616;2022-09-21T03:58:00;100932.91;;;9.66;100.00
35551;BME280;21655;46.056;13.616;2022-09-21T04:00:26;100929.38;;;9.56;100.00
35551;BME280;21655;46.056;13.616;2022-09-21T04:02:52;100932.44;;;9.53;100.00
35551;BME280;21655;46.056;13.616;2022-09-21T04:05:18;100941.53;;;9.46;100.00
35551;BME280;21655;46.056;13.616;2022-09-21T04:07:45;100946.47;;;9.52;100.00
35551;BME280;21655;46.056;13.616;2022-09-21T04:10:12;100951.09;;;9.51;100.00
35551;BME280;21655;46.056;13.616;2022-09-21T04:12:42;100938.94;;;9.44;100.00
35551;BME280;21655;46.056;13.616;2022-09-21T04:15:17;100946.22;;;9.45;100.00
35551;BME280;21655;46.056;13.616;2022-09-21T04:17:50;100953.25;;;9.40;100.00
35551;BME280;21655;46.056;13.616;2022-09-21T04:20:16;100956.50;;;9.35;100.00
35551;BME280;21655;46.056;13.616;2022-09-21T04:22:41;100955.63;;;9.35;100.00
35551;BME280;21655;46.056;13.616;2022-09-21T04:25:09;100961.50;;;9.32;100.00
35551;BME280;21655;46.056;13.616;2022-09-21T04:27:35;100963.53;;;9.30;100.00
35551;BME280;21655;46.056;13.616;2022-09-21T04:30:00;100957.84;;;9.31;100.00
35551;BME280;21655;46.056;13.616;2022-09-21T04:32:25;100960.28;;;9.34;100.00
35551;BME280;21655;46.056;13.616;2022-09-21T04:34:51;100964.09;;;9.33;100.00
35551;BME280;21655;46.056;13.616;2022-09-21T04:37:16;100967.31;;;9.29;100.00
35551;BME280;21655;46.056;13.616;2022-09-21T04:39:42;100971.81;;;9.30;100.00
35551;BME280;21655;46.056;13.616;2022-09-21T04:42:09;100976.50;;;9.29;100.00
35551;BME280;21655;46.056;13.616;2022-09-21T04:44:34;100982.50;;;9.25;100.00
35551;BME280;21655;46.056;13.616;2022-09-21T04:47:00;100977.69;;;9.27;100.00
35551;BME280;21655;46.056;13.616;2022-09-21T04:49:25;100980.38;;;9.19;100.00
35551;BME280;21655;46.056;13.616;2022-09-21T04:51:51;100983.72;;;9.23;100.00
35551;BME280;21655;46.056;13.616;2022-09-21T04:54:16;100987.47;;;9.22;100.00
35551;BME280;21655;46.056;13.616;2022-09-21T04:56:43;100994.88;;;9.04;100.00
35551;BME280;21655;46.056;13.616;2022-09-21T04:59:08;100993.56;;;9.08;100.00
35551;BME280;21655;46.056;13.616;2022-09-21T05:01:34;100997.09;;;9.00;100.00
35551;BME280;21655;46.056;13.616;2022-09-21T05:03:59;100998.59;;;8.95;100.00
35551;BME280;21655;46.056;13.616;2022-09-21T05:06:31;100996.63;;;9.05;100.00
35551;BME280;21655;46.056;13.616;2022-09-21T05:08:56;100999.88;;;9.00;100.00
35551;BME280;21655;46.056;13.616;2022-09-21T05:11:41;101003.88;;;9.06;100.00
35551;BME280;21655;46.056;13.616;2022-09-21T05:14:06;100999.81;;;9.10;100.00
35551;BME280;21655;46.056;13.616;2022-09-21T05:16:33;100998.94;;;9.09;100.00
35551;BME280;21655;46.056;13.616;2022-09-21T05:18:58;101002.25;;;9.13;100.00
35551;BME280;21655;46.056;13.616;2022-09-21T05:21:24;100997.03;;;9.10;100.00
35551;BME280;21655;46.056;13.616;2022-09-21T05:23:50;101009.03;;;9.01;100.00
35551;BME280;21655;46.056;13.616;2022-09-21T05:26:15;101007.69;;;9.05;100.00
35551;BME280;21655;46.056;13.616;2022-09-21T05:28:41;101012.75;;;9.09;100.00
35551;BME280;21655;46.056;13.616;2022-09-21T05:39:59;101016.34;;;9.19;100.00
35551;BME280;21655;46.056;13.616;2022-09-21T05:42:24;101018.34;;;9.27;100.00
35551;BME280;21655;46.056;13.616;2022-09-21T05:44:50;101014.06;;;9.32;100.00
35551;BME280;21655;46.056;13.616;2022-09-21T05:47:27;101014.78;;;9.34;100.00
35551;BME280;21655;46.056;13.616;2022-09-21T06:03:37;101001.34;;;15.52;97.30
35551;BME280;21655;46.056;13.616;2022-09-21T06:06:07;100995.84;;;17.31;74.51
35551;BME280;21655;46.056;13.616;2022-09-21T06:08:32;100992.72;;;18.59;64.27
35551;BME280;21655;46.056;13.616;2022-09-21T06:10:58;101002.75;;;19.38;58.05
35551;BME280;21655;46.056;13.616;2022-09-21T06:13:24;100995.97;;;20.89;53.98
35551;BME280;21655;46.056;13.616;2022-09-21T06:15:50;100998.63;;;21.26;51.96
35551;BME280;21655;46.056;13.616;2022-09-21T06:18:16;100995.53;;;21.99;48.38
35551;BME280;21655;46.056;13.616;2022-09-21T06:20:41;100991.16;;;23.08;45.49
35551;BME280;21655;46.056;13.616;2022-09-21T06:23:09;100996.22;;;24.47;41.68
35551;BME280;21655;46.056;13.616;2022-09-21T06:25:34;100990.66;;;25.18;39.63
35551;BME280;21655;46.056;13.616;2022-09-21T06:28:02;100991.69;;;26.04;37.49
35551;BME280;21655;46.056;13.616;2022-09-21T06:30:29;100990.13;;;26.18;37.48
35551;BME280;21655;46.056;13.616;2022-09-21T06:32:58;100988.84;;;26.31;36.85
35551;BME280;21655;46.056;13.616;2022-09-21T06:35:30;100986.81;;;26.26;36.40
35551;BME280;21655;46.056;13.616;2022-09-21T06:41:08;100979.03;;;27.84;33.99
35551;BME280;21655;46.056;13.616;2022-09-21T06:43:33;100985.88;;;28.74;32.62
35551;BME280;21655;46.056;13.616;2022-09-21T06:46:00;100982.88;;;28.14;32.52
35551;BME280;21655;46.056;13.616;2022-09-21T06:48:27;100991.31;;;28.61;32.29
35551;BME280;21655;46.056;13.616;2022-09-21T06:50:57;100981.91;;;28.60;31.31
35551;BME280;21655;46.056;13.616;2022-09-21T06:53:24;100979.59;;;28.47;31.47
35551;BME280;21655;46.056;13.616;2022-09-21T06:55:49;101003.03;;;28.74;31.34
35551;BME280;21655;46.056;13.616;2022-09-21T06:58:15;101014.75;;;28.88;30.68
35551;BME280;21655;46.056;13.616;2022-09-21T07:00:40;101047.38;;;29.22;30.04
35551;BME280;21655;46.056;13.616;2022-09-21T07:03:09;100986.78;;;29.29;29.80
35551;BME280;21655;46.056;13.616;2022-09-21T07:05:35;100965.91;;;29.44;29.50
35551;BME280;21655;46.056;13.616;2022-09-21T07:08:00;100958.78;;;29.22;29.22
35551;BME280;21655;46.056;13.616;2022-09-21T07:10:26;100967.41;;;30.15;28.20
35551;BME280;21655;46.056;13.616;2022-09-21T07:12:51;100970.53;;;28.95;29.33
35551;BME280;21655;46.056;13.616;2022-09-21T07:15:17;100967.69;;;31.00;27.74
35551;BME280;21655;46.056;13.616;2022-09-21T07:17:43;100957.34;;;29.24;29.62
35551;BME280;21655;46.056;13.616;2022-09-21T07:20:09;100965.84;;;29.74;28.88
35551;BME280;21655;46.056;13.616;2022-09-21T07:22:35;100956.97;;;30.34;28.00
35551;BME280;21655;46.056;13.616;2022-09-21T07:25:03;100965.34;;;29.42;29.68
35551;BME280;21655;46.056;13.616;2022-09-21T07:27:30;100965.06;;;29.09;30.02
35551;BME280;21655;46.056;13.616;2022-09-21T07:29:56;100974.47;;;29.24;29.25
35551;BME280;21655;46.056;13.616;2022-09-21T07:32:21;100970.16;;;29.66;29.15
35551;BME280;21655;46.056;13.616;2022-09-21T07:34:47;100971.06;;;29.47;29.18
35551;BME280;21655;46.056;13.616;2022-09-21T07:37:13;100973.81;;;31.22;26.39
35551;BME280;21655;46.056;13.616;2022-09-21T07:39:40;100977.56;;;33.00;24.74
35551;BME280;21655;46.056;13.616;2022-09-21T07:42:07;100977.41;;;31.66;25.35
35551;BME280;21655;46.056;13.616;2022-09-21T07:44:33;100968.50;;;31.67;25.14
35551;BME280;21655;46.056;13.616;2022-09-21T07:46:59;100975.78;;;32.86;24.33
35551;BME280;21655;46.056;13.616;2022-09-21T07:49:24;100978.28;;;32.74;23.69
35551;BME280;21655;46.056;13.616;2022-09-21T07:51:50;100975.09;;;32.38;25.17
35551;BME280;21655;46.056;13.616;2022-09-21T07:54:15;100978.47;;;33.14;24.88
35551;BME280;21655;46.056;13.616;2022-09-21T07:56:41;100974.25;;;33.57;22.76
35551;BME280;21655;46.056;13.616;2022-09-21T07:59:26;100970.28;;;33.98;22.95
35551;BME280;21655;46.056;13.616;2022-09-21T08:01:52;100974.28;;;33.07;23.67
35551;BME280;21655;46.056;13.616;2022-09-21T08:04:17;100972.59;;;35.21;23.00
35551;BME280;21655;46.056;13.616;2022-09-21T08:06:43;100973.19;;;34.61;22.01
35551;BME280;21655;46.056;13.616;2022-09-21T08:09:08;100973.28;;;35.49;19.57
35551;BME280;21655;46.056;13.616;2022-09-21T08:11:34;100977.63;;;33.91;21.12
35551;BME280;21655;46.056;13.616;2022-09-21T08:14:02;100972.44;;;35.70;20.82
35551;BME280;21655;46.056;13.616;2022-09-21T08:16:29;100974.88;;;36.88;20.05
35551;BME280;21655;46.056;13.616;2022-09-21T08:18:55;100976.09;;;36.31;19.01
35551;BME280;21655;46.056;13.616;2022-09-21T08:21:22;100981.59;;;35.72;19.99
35551;BME280;21655;46.056;13.616;2022-09-21T08:23:49;100980.00;;;35.88;20.23
35551;BME280;21655;46.056;13.616;2022-09-21T08:26:16;100978.44;;;36.85;19.57
35551;BME280;21655;46.056;13.616;2022-09-21T08:28:46;100982.38;;;36.89;19.41
35551;BME280;21655;46.056;13.616;2022-09-21T08:31:18;100985.28;;;37.23;18.87
35551;BME280;21655;46.056;13.616;2022-09-21T08:33:45;100991.59;;;37.08;17.85
35551;BME280;21655;46.056;13.616;2022-09-21T08:36:10;100975.25;;;36.31;17.57
35551;BME280;21655;46.056;13.616;2022-09-21T08:38:37;100973.72;;;35.94;16.80
35551;BME280;21655;46.056;13.616;2022-09-21T08:41:22;100979.78;;;36.96;16.71
35551;BME280;21655;46.056;13.616;2022-09-21T08:43:51;100979.63;;;33.90;18.07
35551;BME280;21655;46.056;13.616;2022-09-21T08:46:26;100970.69;;;35.99;16.85
35551;BME280;21655;46.056;13.616;2022-09-21T08:48:58;100986.16;;;35.95;16.86
35551;BME280;21655;46.056;13.616;2022-09-21T08:51:27;100976.88;;;35.24;17.09
35551;BME280;21655;46.056;13.616;2022-09-21T08:54:06;100971.09;;;34.53;17.95
35551;BME280;21655;46.056;13.616;2022-09-21T08:56:36;100984.91;;;33.25;18.68
35551;BME280;21655;46.056;13.616;2022-09-21T08:59:02;100981.16;;;35.87;16.84
35551;BME280;21655;46.056;13.616;2022-09-21T09:01:37;100978.94;;;35.10;16.80
35551;BME280;21655;46.056;13.616;2022-09-21T09:09:39;100980.72;;;34.48;17.51
35551;BME280;21655;46.056;13.616;2022-09-21T09:12:24;100981.41;;;32.96;17.75
35551;BME280;21655;46.056;13.616;2022-09-21T09:22:48;100975.03;;;35.28;15.58
35551;BME280;21655;46.056;13.616;2022-09-21T09:25:21;100967.59;;;35.35;16.32
35551;BME280;21655;46.056;13.616;2022-09-21T09:30:40;100975.78;;;32.86;18.20
35551;BME280;21655;46.056;13.616;2022-09-21T09:33:19;100970.44;;;31.72;18.94
35551;BME280;21655;46.056;13.616;2022-09-21T09:36:04;100956.81;;;32.66;18.09
35551;BME280;21655;46.056;13.616;2022-09-21T09:38:37;100954.56;;;32.45;18.55
35551;BME280;21655;46.056;13.616;2022-09-21T09:43:52;100944.63;;;32.19;18.45
35551;BME280;21655;46.056;13.616;2022-09-21T09:46:47;100947.91;;;32.31;18.79
35551;BME280;21655;46.056;13.616;2022-09-21T09:52:10;100946.34;;;31.44;18.77
35551;BME280;21655;46.056;13.616;2022-09-21T09:54:36;100942.56;;;31.21;18.50
35551;BME280;21655;46.056;13.616;2022-09-21T09:57:03;100940.44;;;32.48;18.81
35551;BME280;21655;46.056;13.616;2022-09-21T09:59:34;100932.59;;;31.70;18.98
35551;BME280;21655;46.056;13.616;2022-09-21T10:02:09;100937.25;;;31.61;19.71
35551;BME280;21655;46.056;13.616;2022-09-21T10:04:57;100929.59;;;31.28;20.13
35551;BME280;21655;46.056;13.616;2022-09-21T10:07:43;100932.22;;;32.60;18.89
35551;BME280;21655;46.056;13.616;2022-09-21T10:12:46;100928.34;;;29.75;21.80
35551;BME280;21655;46.056;13.616;2022-09-21T10:15:11;100920.41;;;30.98;21.23
35551;BME280;21655;46.056;13.616;2022-09-21T10:17:37;100925.78;;;29.79;20.62
35551;BME280;21655;46.056;13.616;2022-09-21T10:20:05;100915.59;;;30.16;21.17
35551;BME280;21655;46.056;13.616;2022-09-21T10:22:32;100921.66;;;28.67;21.67
35551;BME280;21655;46.056;13.616;2022-09-21T10:24:57;100918.81;;;28.67;20.71
35551;BME280;21655;46.056;13.616;2022-09-21T10:27:33;100915.78;;;26.99;23.07
35551;BME280;21655;46.056;13.616;2022-09-21T10:29:59;100913.47;;;25.37;23.80
35551;BME280;21655;46.056;13.616;2022-09-21T10:32:28;100912.66;;;27.37;23.05
35551;BME280;21655;46.056;13.616;2022-09-21T10:37:42;100902.19;;;29.14;20.48
35551;BME280;21655;46.056;13.616;2022-09-21T10:42:42;100892.09;;;30.19;19.70
35551;BME280;21655;46.056;13.616;2022-09-21T10:45:14;100890.25;;;30.77;17.87
35551;BME280;21655;46.056;13.616;2022-09-21T10:47:47;100901.34;;;31.17;18.29
35551;BME280;21655;46.056;13.616;2022-09-21T10:52:59;100892.13;;;31.48;19.06
35551;BME280;21655;46.056;13.616;2022-09-21T10:55:27;100900.66;;;31.53;18.59
35551;BME280;21655;46.056;13.616;2022-09-21T10:57:53;100899.84;;;31.47;18.15
35551;BME280;21655;46.056;13.616;2022-09-21T11:00:28;100896.66;;;32.56;18.02
35551;BME280;21655;46.056;13.616;2022-09-21T11:03:05;100894.69;;;33.79;17.47
35551;BME280;21655;46.056;13.616;2022-09-21T11:05:48;100898.22;;;32.99;16.65
35551;BME280;21655;46.056;13.616;2022-09-21T11:08:33;100906.56;;;31.10;17.92
35551;BME280;21655;46.056;13.616;2022-09-21T11:21:53;100904.31;;;29.76;19.82
35551;BME280;21655;46.056;13.616;2022-09-21T11:24:35;100897.09;;;31.14;18.97
35551;BME280;21655;46.056;13.616;2022-09-21T11:32:54;100887.69;;;33.67;15.68
35551;BME280;21655;46.056;13.616;2022-09-21T11:38:01;100895.28;;;32.72;16.79
35551;BME280;21655;46.056;13.616;2022-09-21T11:45:54;100894.69;;;33.79;15.58
35551;BME280;21655;46.056;13.616;2022-09-21T11:48:47;100891.00;;;31.91;17.09
35551;BME280;21655;46.056;13.616;2022-09-21T11:53:57;100891.28;;;28.11;20.04
35551;BME280;21655;46.056;13.616;2022-09-21T12:04:56;100888.81;;;23.50;25.35
35551;BME280;21655;46.056;13.616;2022-09-21T12:13:07;100888.09;;;22.58;27.23
35551;BME280;21655;46.056;13.616;2022-09-21T12:18:29;100884.50;;;23.48;29.11
35551;BME280;21655;46.056;13.616;2022-09-21T12:21:11;100870.88;;;26.70;23.53
35551;BME280;21655;46.056;13.616;2022-09-21T12:23:42;100878.78;;;29.12;20.42
35551;BME280;21655;46.056;13.616;2022-09-21T12:26:13;100875.91;;;29.95;22.00
35551;BME280;21655;46.056;13.616;2022-09-21T12:28:45;100868.25;;;28.67;23.22
35551;BME280;21655;46.056;13.616;2022-09-21T12:31:36;100875.06;;;26.94;26.20
35551;BME280;21655;46.056;13.616;2022-09-21T12:34:25;100872.78;;;27.42;25.72
35551;BME280;21655;46.056;13.616;2022-09-21T12:39:47;100859.31;;;25.22;27.79
35551;BME280;21655;46.056;13.616;2022-09-21T12:47:38;100871.72;;;26.07;25.83
35551;BME280;21655;46.056;13.616;2022-09-21T12:50:15;100874.03;;;25.03;25.78
35551;BME280;21655;46.056;13.616;2022-09-21T12:52:45;100865.50;;;25.41;25.89
35551;BME280;21655;46.056;13.616;2022-09-21T13:01:18;100867.09;;;25.53;24.04
35551;BME280;21655;46.056;13.616;2022-09-21T13:09:17;100869.94;;;24.12;27.71
35551;BME280;21655;46.056;13.616;2022-09-21T13:14:46;100873.78;;;23.50;28.72
35551;BME280;21655;46.056;13.616;2022-09-21T13:17:25;100864.63;;;23.59;29.45
35551;BME280;21655;46.056;13.616;2022-09-21T13:20:16;100861.97;;;24.42;29.80
35551;BME280;21655;46.056;13.616;2022-09-21T13:22:43;100863.69;;;24.43;29.56
35551;BME280;21655;46.056;13.616;2022-09-21T13:25:23;100863.41;;;23.27;29.98
35551;BME280;21655;46.056;13.616;2022-09-21T13:30:38;100855.75;;;23.67;29.48
35551;BME280;21655;46.056;13.616;2022-09-21T13:36:32;100855.97;;;22.64;31.44
35551;BME280;21655;46.056;13.616;2022-09-21T13:41:33;100849.66;;;22.28;32.12
35551;BME280;21655;46.056;13.616;2022-09-21T13:44:01;100846.50;;;22.93;32.45
35551;BME280;21655;46.056;13.616;2022-09-21T13:51:26;100847.00;;;23.41;30.72
35551;BME280;21655;46.056;13.616;2022-09-21T13:53:54;100846.13;;;23.40;29.51
35551;BME280;21655;46.056;13.616;2022-09-21T13:56:24;100846.69;;;23.03;29.48
35551;BME280;21655;46.056;13.616;2022-09-21T13:58:52;100844.00;;;22.97;29.24
35551;BME280;21655;46.056;13.616;2022-09-21T14:01:23;100845.56;;;23.55;28.07
35551;BME280;21655;46.056;13.616;2022-09-21T14:03:57;100851.56;;;23.42;28.84
35551;BME280;21655;46.056;13.616;2022-09-21T14:06:30;100850.97;;;23.28;29.33
35551;BME280;21655;46.056;13.616;2022-09-21T14:09:03;100844.47;;;23.28;28.76
35551;BME280;21655;46.056;13.616;2022-09-21T14:11:33;100839.69;;;23.05;32.02
35551;BME280;21655;46.056;13.616;2022-09-21T14:14:02;100837.63;;;22.90;34.93
35551;BME280;21655;46.056;13.616;2022-09-21T14:18:59;100840.25;;;22.45;38.98
35551;BME280;21655;46.056;13.616;2022-09-21T14:21:26;100835.91;;;22.20;39.32
35551;BME280;21655;46.056;13.616;2022-09-21T14:24:23;100829.88;;;22.05;41.95
35551;BME280;21655;46.056;13.616;2022-09-21T14:29:49;100832.88;;;22.44;40.69
35551;BME280;21655;46.056;13.616;2022-09-21T14:32:20;100831.13;;;22.78;38.60
35551;BME280;21655;46.056;13.616;2022-09-21T14:34:49;100836.31;;;22.46;39.11
35551;BME280;21655;46.056;13.616;2022-09-21T14:37:46;100830.78;;;22.40;36.00
35551;BME280;21655;46.056;13.616;2022-09-21T14:40:25;100823.00;;;22.35;33.73
35551;BME280;21655;46.056;13.616;2022-09-21T14:42:54;100821.66;;;22.72;33.87
35551;BME280;21655;46.056;13.616;2022-09-21T14:45:25;100830.13;;;22.72;32.86
35551;BME280;21655;46.056;13.616;2022-09-21T14:48:15;100832.03;;;22.67;31.76
35551;BME280;21655;46.056;13.616;2022-09-21T14:50:56;100820.53;;;22.73;32.48
35551;BME280;21655;46.056;13.616;2022-09-21T15:01:36;100827.56;;;22.25;34.05
35551;BME280;21655;46.056;13.616;2022-09-21T15:07:12;100827.97;;;21.87;35.27
35551;BME280;21655;46.056;13.616;2022-09-21T15:10:33;100829.28;;;21.44;35.10
35551;BME280;21655;46.056;13.616;2022-09-21T15:18:40;100821.31;;;21.70;34.68
35551;BME280;21655;46.056;13.616;2022-09-21T15:23:46;100825.84;;;21.42;35.54
35551;BME280;21655;46.056;13.616;2022-09-21T15:26:22;100818.13;;;21.49;35.40
35551;BME280;21655;46.056;13.616;2022-09-21T15:28:57;100819.66;;;21.33;38.03
35551;BME280;21655;46.056;13.616;2022-09-21T15:31:23;100821.66;;;21.15;41.44
35551;BME280;21655;46.056;13.616;2022-09-21T15:33:51;100828.91;;;20.93;43.91
35551;BME280;21655;46.056;13.616;2022-09-21T15:36:26;100827.00;;;20.69;45.45
35551;BME280;21655;46.056;13.616;2022-09-21T15:38:53;100825.44;;;20.55;46.68
35551;BME280;21655;46.056;13.616;2022-09-21T15:41:47;100825.78;;;20.59;47.61
35551;BME280;21655;46.056;13.616;2022-09-21T15:44:21;100817.88;;;20.49;47.77
35551;BME280;21655;46.056;13.616;2022-09-21T15:46:50;100828.25;;;20.13;47.87
35551;BME280;21655;46.056;13.616;2022-09-21T15:49:18;100823.81;;;19.68;49.14
35551;BME280;21655;46.056;13.616;2022-09-21T15:51:48;100817.78;;;19.33;51.26
35551;BME280;21655;46.056;13.616;2022-09-21T15:56:49;100826.81;;;18.98;55.72